sensor_id;sensor_type;location;lat;lon;timestamp;P1;durP1;ratioP1;P2;durP2;ratioP2
38609;SDS011;24367;51.640;9.566;2024-03-07T00:01:26;4.57;;;3.85;;
38609;SDS011;24367;51.640;9.566;2024-03-07T00:03:52;4.72;;;3.78;;
38609;SDS011;24367;51.640;9.566;2024-03-07T00:06:20;4.10;;;3.25;;
38609;SDS011;24367;51.640;9.566;2024-03-07T00:08:47;4.32;;;3.45;;
38609;SDS011;24367;51.640;9.566;2024-03-07T00:11:13;4.15;;;3.75;;
38609;SDS011;24367;51.640;9.566;2024-03-07T00:13:40;4.88;;;3.78;;
38609;SDS011;24367;51.640;9.566;2024-03-07T00:16:08;4.10;;;3.55;;
38609;SDS011;24367;51.640;9.566;2024-03-07T00:18:35;4.38;;;3.75;;
38609;SDS011;24367;51.640;9.566;2024-03-07T00:21:02;4.25;;;3.45;;
38609;SDS011;24367;51.640;9.566;2024-03-07T00:23:30;3.90;;;3.40;;
38609;SDS011;24367;51.640;9.566;2024-03-07T00:25:57;3.78;;;3.40;;
38609;SDS011;24367;51.640;9.566;2024-03-07T00:28:23;3.90;;;3.50;;
38609;SDS011;24367;51.640;9.566;2024-03-07T00:30:54;3.63;;;3.00;;
38609;SDS011;24367;51.640;9.566;2024-03-07T00:33:20;5.53;;;3.45;;
38609;SDS011;24367;51.640;9.566;2024-03-07T00:35:47;4.35;;;3.40;;
38609;SDS011;24367;51.640;9.566;2024-03-07T00:38:13;4.05;;;3.42;;
38609;SDS011;24367;51.640;9.566;2024-03-07T00:40:41;3.75;;;2.90;;
38609;SDS011;24367;51.640;9.566;2024-03-07T00:43:08;3.72;;;3.00;;
38609;SDS011;24367;51.640;9.566;2024-03-07T00:45:34;3.88;;;3.42;;
38609;SDS011;24367;51.640;9.566;2024-03-07T00:48:01;3.85;;;3.28;;
38609;SDS011;24367;51.640;9.566;2024-03-07T00:50:28;3.80;;;3.30;;
38609;SDS011;24367;51.640;9.566;2024-03-07T00:52:56;4.15;;;3.60;;
38609;SDS011;24367;51.640;9.566;2024-03-07T00:55:22;4.47;;;3.35;;
38609;SDS011;24367;51.640;9.566;2024-03-07T00:57:50;3.42;;;3.13;;
38609;SDS011;24367;51.640;9.566;2024-03-07T01:00:17;3.97;;;2.83;;
38609;SDS011;24367;51.640;9.566;2024-03-07T01:02:46;4.38;;;3.38;;
38609;SDS011;24367;51.640;9.566;2024-03-07T01:05:13;4.53;;;3.30;;
38609;SDS011;24367;51.640;9.566;2024-03-07T01:07:39;4.15;;;3.22;;
38609;SDS011;24367;51.640;9.566;2024-03-07T01:10:06;4.22;;;3.50;;
38609;SDS011;24367;51.640;9.566;2024-03-07T01:12:34;3.85;;;3.33;;
38609;SDS011;24367;51.640;9.566;2024-03-07T01:15:02;3.90;;;3.08;;
38609;SDS011;24367;51.640;9.566;2024-03-07T01:17:30;4.13;;;3.33;;
38609;SDS011;24367;51.640;9.566;2024-03-07T01:19:57;3.90;;;3.47;;
38609;SDS011;24367;51.640;9.566;2024-03-07T01:22:24;3.83;;;3.35;;
38609;SDS011;24367;51.640;9.566;2024-03-07T01:24:50;4.07;;;3.60;;
38609;SDS011;24367;51.640;9.566;2024-03-07T01:27:17;3.80;;;3.30;;
38609;SDS011;24367;51.640;9.566;2024-03-07T01:29:43;3.47;;;3.08;;
38609;SDS011;24367;51.640;9.566;2024-03-07T01:32:12;3.10;;;2.80;;
38609;SDS011;24367;51.640;9.566;2024-03-07T01:34:38;4.35;;;3.30;;
38609;SDS011;24367;51.640;9.566;2024-03-07T01:37:05;3.53;;;2.95;;
38609;SDS011;24367;51.640;9.566;2024-03-07T01:39:33;3.22;;;2.80;;
38609;SDS011;24367;51.640;9.566;2024-03-07T01:42:00;3.95;;;3.33;;
38609;SDS011;24367;51.640;9.566;2024-03-07T01:44:26;3.53;;;3.13;;
38609;SDS011;24367;51.640;9.566;2024-03-07T01:46:56;3.42;;;2.92;;
38609;SDS011;24367;51.640;9.566;2024-03-07T01:49:26;3.50;;;3.20;;
38609;SDS011;24367;51.640;9.566;2024-03-07T01:51:53;3.80;;;2.80;;
38609;SDS011;24367;51.640;9.566;2024-03-07T01:54:20;3.42;;;3.05;;
38609;SDS011;24367;51.640;9.566;2024-03-07T01:56:46;3.38;;;2.65;;
38609;SDS011;24367;51.640;9.566;2024-03-07T01:59:13;4.03;;;2.97;;
38609;SDS011;24367;51.640;9.566;2024-03-07T02:01:39;4.05;;;3.00;;
38609;SDS011;24367;51.640;9.566;2024-03-07T02:04:06;3.63;;;2.67;;
38609;SDS011;24367;51.640;9.566;2024-03-07T02:06:34;3.40;;;2.83;;
38609;SDS011;24367;51.640;9.566;2024-03-07T02:09:01;3.38;;;2.95;;
38609;SDS011;24367;51.640;9.566;2024-03-07T02:11:28;3.45;;;2.92;;
38609;SDS011;24367;51.640;9.566;2024-03-07T02:13:55;3.35;;;2.70;;
38609;SDS011;24367;51.640;9.566;2024-03-07T02:16:21;3.58;;;3.17;;
38609;SDS011;24367;51.640;9.566;2024-03-07T02:18:48;3.65;;;3.03;;
38609;SDS011;24367;51.640;9.566;2024-03-07T02:21:16;3.42;;;2.88;;
38609;SDS011;24367;51.640;9.566;2024-03-07T02:23:42;3.85;;;3.20;;
38609;SDS011;24367;51.640;9.566;2024-03-07T02:26:09;3.40;;;3.10;;
38609;SDS011;24367;51.640;9.566;2024-03-07T02:28:35;3.70;;;2.60;;
38609;SDS011;24367;51.640;9.566;2024-03-07T02:31:01;3.35;;;2.95;;
38609;SDS011;24367;51.640;9.566;2024-03-07T02:33:28;4.05;;;3.03;;
38609;SDS011;24367;51.640;9.566;2024-03-07T02:35:57;3.15;;;2.83;;
38609;SDS011;24367;51.640;9.566;2024-03-07T02:38:24;3.78;;;2.90;;
38609;SDS011;24367;51.640;9.566;2024-03-07T02:40:51;4.22;;;3.03;;
38609;SDS011;24367;51.640;9.566;2024-03-07T02:43:17;4.10;;;3.00;;
38609;SDS011;24367;51.640;9.566;2024-03-07T02:45:44;3.10;;;2.78;;
38609;SDS011;24367;51.640;9.566;2024-03-07T02:48:10;3.20;;;2.55;;
38609;SDS011;24367;51.640;9.566;2024-03-07T02:50:36;3.45;;;2.80;;
38609;SDS011;24367;51.640;9.566;2024-03-07T02:53:03;2.95;;;2.65;;
38609;SDS011;24367;51.640;9.566;2024-03-07T02:55:31;3.70;;;2.75;;
38609;SDS011;24367;51.640;9.566;2024-03-07T02:57:59;3.00;;;2.65;;
38609;SDS011;24367;51.640;9.566;2024-03-07T03:00:25;3.42;;;2.83;;
38609;SDS011;24367;51.640;9.566;2024-03-07T03:02:54;3.67;;;3.28;;
38609;SDS011;24367;51.640;9.566;2024-03-07T03:05:22;3.10;;;2.53;;
38609;SDS011;24367;51.640;9.566;2024-03-07T03:07:49;3.10;;;2.63;;
38609;SDS011;24367;51.640;9.566;2024-03-07T03:10:19;3.50;;;3.00;;
38609;SDS011;24367;51.640;9.566;2024-03-07T03:12:51;3.28;;;2.92;;
38609;SDS011;24367;51.640;9.566;2024-03-07T03:15:18;3.47;;;2.78;;
38609;SDS011;24367;51.640;9.566;2024-03-07T03:17:45;3.00;;;2.60;;
38609;SDS011;24367;51.640;9.566;2024-03-07T03:20:12;3.72;;;2.97;;
38609;SDS011;24367;51.640;9.566;2024-03-07T03:22:49;2.78;;;2.30;;
38609;SDS011;24367;51.640;9.566;2024-03-07T03:25:16;2.70;;;2.33;;
38609;SDS011;24367;51.640;9.566;2024-03-07T03:27:43;3.20;;;2.50;;
38609;SDS011;24367;51.640;9.566;2024-03-07T03:30:11;3.28;;;2.90;;
38609;SDS011;24367;51.640;9.566;2024-03-07T03:32:39;3.42;;;2.63;;
38609;SDS011;24367;51.640;9.566;2024-03-07T03:35:06;2.95;;;2.65;;
38609;SDS011;24367;51.640;9.566;2024-03-07T03:37:38;3.67;;;2.50;;
38609;SDS011;24367;51.640;9.566;2024-03-07T03:40:05;3.40;;;2.90;;
38609;SDS011;24367;51.640;9.566;2024-03-07T03:42:34;3.05;;;2.50;;
38609;SDS011;24367;51.640;9.566;2024-03-07T03:45:01;3.42;;;2.60;;
38609;SDS011;24367;51.640;9.566;2024-03-07T03:47:29;3.40;;;3.00;;
38609;SDS011;24367;51.640;9.566;2024-03-07T03:49:55;3.10;;;2.58;;
38609;SDS011;24367;51.640;9.566;2024-03-07T03:52:22;3.13;;;2.45;;
38609;SDS011;24367;51.640;9.566;2024-03-07T03:54:48;3.10;;;2.50;;
38609;SDS011;24367;51.640;9.566;2024-03-07T03:57:14;3.53;;;2.83;;
38609;SDS011;24367;51.640;9.566;2024-03-07T03:59:43;3.28;;;2.70;;
38609;SDS011;24367;51.640;9.566;2024-03-07T04:02:10;3.08;;;2.60;;
38609;SDS011;24367;51.640;9.566;2024-03-07T04:04:39;3.40;;;2.75;;
38609;SDS011;24367;51.640;9.566;2024-03-07T04:07:06;3.38;;;2.80;;
38609;SDS011;24367;51.640;9.566;2024-03-07T04:09:32;4.15;;;2.70;;
38609;SDS011;24367;51.640;9.566;2024-03-07T04:11:59;2.95;;;2.30;;
38609;SDS011;24367;51.640;9.566;2024-03-07T04:14:25;3.25;;;2.60;;
38609;SDS011;24367;51.640;9.566;2024-03-07T04:16:52;3.75;;;2.50;;
38609;SDS011;24367;51.640;9.566;2024-03-07T04:19:21;3.00;;;2.38;;
38609;SDS011;24367;51.640;9.566;2024-03-07T04:21:49;3.25;;;2.75;;
38609;SDS011;24367;51.640;9.566;2024-03-07T04:24:16;2.90;;;2.40;;
38609;SDS011;24367;51.640;9.566;2024-03-07T04:26:42;3.33;;;2.53;;
38609;SDS011;24367;51.640;9.566;2024-03-07T04:29:09;3.00;;;2.45;;
38609;SDS011;24367;51.640;9.566;2024-03-07T04:31:36;3.17;;;2.88;;
38609;SDS011;24367;51.640;9.566;2024-03-07T04:34:02;3.35;;;2.78;;
38609;SDS011;24367;51.640;9.566;2024-03-07T04:36:29;3.20;;;2.53;;
38609;SDS011;24367;51.640;9.566;2024-03-07T04:38:58;3.30;;;2.60;;
38609;SDS011;24367;51.640;9.566;2024-03-07T04:41:25;3.17;;;2.42;;
38609;SDS011;24367;51.640;9.566;2024-03-07T04:43:53;3.45;;;2.70;;
38609;SDS011;24367;51.640;9.566;2024-03-07T04:46:20;3.47;;;3.15;;
38609;SDS011;24367;51.640;9.566;2024-03-07T04:48:46;3.45;;;2.40;;
38609;SDS011;24367;51.640;9.566;2024-03-07T04:51:13;3.58;;;2.95;;
38609;SDS011;24367;51.640;9.566;2024-03-07T04:53:40;3.00;;;2.55;;
38609;SDS011;24367;51.640;9.566;2024-03-07T04:56:08;3.10;;;2.35;;
38609;SDS011;24367;51.640;9.566;2024-03-07T04:58:35;3.90;;;2.80;;
38609;SDS011;24367;51.640;9.566;2024-03-07T05:01:02;3.20;;;2.50;;
38609;SDS011;24367;51.640;9.566;2024-03-07T05:03:28;3.42;;;2.70;;
38609;SDS011;24367;51.640;9.566;2024-03-07T05:05:55;3.17;;;2.70;;
38609;SDS011;24367;51.640;9.566;2024-03-07T05:08:22;2.72;;;2.30;;
38609;SDS011;24367;51.640;9.566;2024-03-07T05:10:48;3.13;;;2.30;;
38609;SDS011;24367;51.640;9.566;2024-03-07T05:13:18;3.28;;;2.40;;
38609;SDS011;24367;51.640;9.566;2024-03-07T05:15:45;3.25;;;2.50;;
38609;SDS011;24367;51.640;9.566;2024-03-07T05:18:11;3.00;;;2.40;;
38609;SDS011;24367;51.640;9.566;2024-03-07T05:20:39;3.10;;;2.28;;
38609;SDS011;24367;51.640;9.566;2024-03-07T05:23:05;3.10;;;2.53;;
38609;SDS011;24367;51.640;9.566;2024-03-07T05:25:32;3.22;;;2.50;;
38609;SDS011;24367;51.640;9.566;2024-03-07T05:27:58;3.00;;;2.45;;
38609;SDS011;24367;51.640;9.566;2024-03-07T05:30:28;3.97;;;2.33;;
38609;SDS011;24367;51.640;9.566;2024-03-07T05:32:55;3.13;;;2.78;;
38609;SDS011;24367;51.640;9.566;2024-03-07T05:35:21;2.78;;;2.35;;
38609;SDS011;24367;51.640;9.566;2024-03-07T05:37:46;3.22;;;2.42;;
38609;SDS011;24367;51.640;9.566;2024-03-07T05:40:13;2.78;;;2.20;;
38609;SDS011;24367;51.640;9.566;2024-03-07T05:42:39;3.25;;;2.60;;
38609;SDS011;24367;51.640;9.566;2024-03-07T05:45:06;3.42;;;2.70;;
38609;SDS011;24367;51.640;9.566;2024-03-07T05:47:35;3.17;;;2.15;;
38609;SDS011;24367;51.640;9.566;2024-03-07T05:50:01;2.78;;;2.25;;
38609;SDS011;24367;51.640;9.566;2024-03-07T05:52:28;3.00;;;2.45;;
38609;SDS011;24367;51.640;9.566;2024-03-07T05:54:55;3.45;;;2.65;;
38609;SDS011;24367;51.640;9.566;2024-03-07T05:57:22;2.90;;;2.40;;
38609;SDS011;24367;51.640;9.566;2024-03-07T05:59:48;3.20;;;2.50;;
38609;SDS011;24367;51.640;9.566;2024-03-07T06:02:14;3.35;;;2.70;;
38609;SDS011;24367;51.640;9.566;2024-03-07T06:04:42;2.83;;;2.22;;
38609;SDS011;24367;51.640;9.566;2024-03-07T06:07:09;3.10;;;2.50;;
38609;SDS011;24367;51.640;9.566;2024-03-07T06:09:36;2.90;;;2.15;;
38609;SDS011;24367;51.640;9.566;2024-03-07T06:12:02;2.83;;;2.20;;
38609;SDS011;24367;51.640;9.566;2024-03-07T06:14:29;2.70;;;2.35;;
38609;SDS011;24367;51.640;9.566;2024-03-07T06:16:55;3.33;;;2.50;;
38609;SDS011;24367;51.640;9.566;2024-03-07T06:19:23;2.60;;;2.08;;
38609;SDS011;24367;51.640;9.566;2024-03-07T06:21:51;2.97;;;2.50;;
38609;SDS011;24367;51.640;9.566;2024-03-07T06:24:18;2.55;;;2.08;;
38609;SDS011;24367;51.640;9.566;2024-03-07T06:26:48;3.65;;;2.60;;
38609;SDS011;24367;51.640;9.566;2024-03-07T06:29:24;3.20;;;2.80;;
38609;SDS011;24367;51.640;9.566;2024-03-07T06:31:51;2.85;;;2.42;;
38609;SDS011;24367;51.640;9.566;2024-03-07T06:34:18;3.58;;;2.30;;
38609;SDS011;24367;51.640;9.566;2024-03-07T06:36:45;2.72;;;2.13;;
38609;SDS011;24367;51.640;9.566;2024-03-07T06:39:13;2.53;;;1.95;;
38609;SDS011;24367;51.640;9.566;2024-03-07T06:41:39;2.78;;;2.20;;
38609;SDS011;24367;51.640;9.566;2024-03-07T06:44:06;3.22;;;2.30;;
38609;SDS011;24367;51.640;9.566;2024-03-07T06:46:34;2.78;;;2.17;;
38609;SDS011;24367;51.640;9.566;2024-03-07T06:49:01;3.25;;;2.60;;
38609;SDS011;24367;51.640;9.566;2024-03-07T06:51:27;2.90;;;2.33;;
38609;SDS011;24367;51.640;9.566;2024-03-07T06:53:53;2.92;;;2.13;;
38609;SDS011;24367;51.640;9.566;2024-03-07T06:56:22;3.03;;;2.47;;
38609;SDS011;24367;51.640;9.566;2024-03-07T06:58:49;3.25;;;2.33;;
38609;SDS011;24367;51.640;9.566;2024-03-07T07:01:15;2.75;;;2.20;;
38609;SDS011;24367;51.640;9.566;2024-03-07T07:03:43;3.20;;;2.40;;
38609;SDS011;24367;51.640;9.566;2024-03-07T07:06:10;2.90;;;2.20;;
38609;SDS011;24367;51.640;9.566;2024-03-07T07:08:37;2.90;;;2.33;;
38609;SDS011;24367;51.640;9.566;2024-03-07T07:11:04;2.88;;;2.35;;
38609;SDS011;24367;51.640;9.566;2024-03-07T07:13:31;2.83;;;2.28;;
38609;SDS011;24367;51.640;9.566;2024-03-07T07:15:58;2.55;;;2.08;;
38609;SDS011;24367;51.640;9.566;2024-03-07T07:18:24;3.10;;;2.38;;
38609;SDS011;24367;51.640;9.566;2024-03-07T07:20:51;3.13;;;2.42;;
38609;SDS011;24367;51.640;9.566;2024-03-07T07:23:18;3.13;;;2.30;;
38609;SDS011;24367;51.640;9.566;2024-03-07T07:25:45;3.30;;;2.67;;
38609;SDS011;24367;51.640;9.566;2024-03-07T07:28:11;3.67;;;2.38;;
38609;SDS011;24367;51.640;9.566;2024-03-07T07:30:39;3.55;;;2.67;;
38609;SDS011;24367;51.640;9.566;2024-03-07T07:33:06;3.40;;;2.63;;
38609;SDS011;24367;51.640;9.566;2024-03-07T07:35:32;3.20;;;2.38;;
38609;SDS011;24367;51.640;9.566;2024-03-07T07:37:59;2.80;;;2.20;;
38609;SDS011;24367;51.640;9.566;2024-03-07T07:40:26;2.88;;;2.50;;
38609;SDS011;24367;51.640;9.566;2024-03-07T07:42:53;3.38;;;2.33;;
38609;SDS011;24367;51.640;9.566;2024-03-07T07:45:20;3.65;;;2.55;;
38609;SDS011;24367;51.640;9.566;2024-03-07T07:47:48;4.88;;;3.00;;
38609;SDS011;24367;51.640;9.566;2024-03-07T07:50:17;3.72;;;2.47;;
38609;SDS011;24367;51.640;9.566;2024-03-07T07:52:45;3.72;;;2.60;;
38609;SDS011;24367;51.640;9.566;2024-03-07T07:55:13;3.80;;;2.50;;
38609;SDS011;24367;51.640;9.566;2024-03-07T07:57:40;4.22;;;2.65;;
38609;SDS011;24367;51.640;9.566;2024-03-07T08:00:08;3.85;;;3.05;;
38609;SDS011;24367;51.640;9.566;2024-03-07T08:02:37;3.42;;;2.60;;
38609;SDS011;24367;51.640;9.566;2024-03-07T08:05:05;2.95;;;2.40;;
38609;SDS011;24367;51.640;9.566;2024-03-07T08:07:32;3.30;;;2.40;;
38609;SDS011;24367;51.640;9.566;2024-03-07T08:09:58;3.35;;;2.58;;
38609;SDS011;24367;51.640;9.566;2024-03-07T08:12:24;3.70;;;2.92;;
38609;SDS011;24367;51.640;9.566;2024-03-07T08:14:51;3.60;;;2.92;;
38609;SDS011;24367;51.640;9.566;2024-03-07T08:17:17;3.95;;;2.70;;
38609;SDS011;24367;51.640;9.566;2024-03-07T08:19:45;3.78;;;3.25;;
38609;SDS011;24367;51.640;9.566;2024-03-07T08:22:14;14.18;;;11.38;;
38609;SDS011;24367;51.640;9.566;2024-03-07T08:24:41;15.05;;;13.55;;
38609;SDS011;24367;51.640;9.566;2024-03-07T08:27:07;12.43;;;11.23;;
38609;SDS011;24367;51.640;9.566;2024-03-07T08:29:36;8.20;;;7.40;;
38609;SDS011;24367;51.640;9.566;2024-03-07T08:32:02;8.10;;;7.30;;
38609;SDS011;24367;51.640;9.566;2024-03-07T08:34:29;7.03;;;5.95;;
38609;SDS011;24367;51.640;9.566;2024-03-07T08:36:55;9.32;;;5.30;;
38609;SDS011;24367;51.640;9.566;2024-03-07T08:39:23;6.50;;;4.90;;
38609;SDS011;24367;51.640;9.566;2024-03-07T08:41:50;8.20;;;4.70;;
38609;SDS011;24367;51.640;9.566;2024-03-07T08:44:16;8.15;;;4.65;;
38609;SDS011;24367;51.640;9.566;2024-03-07T08:46:42;18.35;;;4.88;;
38609;SDS011;24367;51.640;9.566;2024-03-07T08:49:09;6.88;;;4.43;;
38609;SDS011;24367;51.640;9.566;2024-03-07T08:51:36;7.78;;;4.28;;
38609;SDS011;24367;51.640;9.566;2024-03-07T08:54:02;5.53;;;4.13;;
38609;SDS011;24367;51.640;9.566;2024-03-07T08:56:30;5.63;;;4.07;;
38609;SDS011;24367;51.640;9.566;2024-03-07T08:58:56;7.20;;;3.97;;
38609;SDS011;24367;51.640;9.566;2024-03-07T09:01:23;5.95;;;4.70;;
38609;SDS011;24367;51.640;9.566;2024-03-07T09:03:50;6.47;;;4.00;;
38609;SDS011;24367;51.640;9.566;2024-03-07T09:06:16;4.65;;;3.60;;
38609;SDS011;24367;51.640;9.566;2024-03-07T09:08:43;5.15;;;4.05;;
38609;SDS011;24367;51.640;9.566;2024-03-07T09:11:10;5.55;;;3.80;;
38609;SDS011;24367;51.640;9.566;2024-03-07T09:13:37;4.95;;;3.50;;
38609;SDS011;24367;51.640;9.566;2024-03-07T09:16:05;5.03;;;3.92;;
38609;SDS011;24367;51.640;9.566;2024-03-07T09:18:32;5.55;;;3.90;;
38609;SDS011;24367;51.640;9.566;2024-03-07T09:20:59;5.05;;;3.80;;
38609;SDS011;24367;51.640;9.566;2024-03-07T09:23:25;4.65;;;3.60;;
38609;SDS011;24367;51.640;9.566;2024-03-07T09:25:52;5.93;;;3.88;;
38609;SDS011;24367;51.640;9.566;2024-03-07T09:28:18;4.90;;;3.67;;
38609;SDS011;24367;51.640;9.566;2024-03-07T09:30:46;5.03;;;4.10;;
38609;SDS011;24367;51.640;9.566;2024-03-07T09:33:14;4.18;;;3.25;;
38609;SDS011;24367;51.640;9.566;2024-03-07T09:35:44;4.00;;;3.40;;
38609;SDS011;24367;51.640;9.566;2024-03-07T09:38:10;4.13;;;3.40;;
38609;SDS011;24367;51.640;9.566;2024-03-07T09:40:37;4.85;;;3.90;;
38609;SDS011;24367;51.640;9.566;2024-03-07T09:43:03;4.60;;;3.55;;
38609;SDS011;24367;51.640;9.566;2024-03-07T09:45:32;5.95;;;3.95;;
38609;SDS011;24367;51.640;9.566;2024-03-07T09:48:01;4.32;;;3.50;;
38609;SDS011;24367;51.640;9.566;2024-03-07T09:50:29;4.57;;;3.83;;
38609;SDS011;24367;51.640;9.566;2024-03-07T09:52:56;5.43;;;3.70;;
38609;SDS011;24367;51.640;9.566;2024-03-07T09:55:25;5.10;;;3.85;;
38609;SDS011;24367;51.640;9.566;2024-03-07T09:57:51;6.15;;;3.90;;
38609;SDS011;24367;51.640;9.566;2024-03-07T10:00:18;4.45;;;3.47;;
38609;SDS011;24367;51.640;9.566;2024-03-07T10:02:50;4.72;;;3.60;;
38609;SDS011;24367;51.640;9.566;2024-03-07T10:05:22;4.47;;;3.83;;
38609;SDS011;24367;51.640;9.566;2024-03-07T10:07:48;6.78;;;3.92;;
38609;SDS011;24367;51.640;9.566;2024-03-07T10:10:17;6.25;;;3.80;;
38609;SDS011;24367;51.640;9.566;2024-03-07T10:12:43;5.35;;;3.35;;
38609;SDS011;24367;51.640;9.566;2024-03-07T10:15:10;4.22;;;3.40;;
38609;SDS011;24367;51.640;9.566;2024-03-07T10:17:38;4.28;;;3.50;;
38609;SDS011;24367;51.640;9.566;2024-03-07T10:20:05;4.45;;;3.80;;
38609;SDS011;24367;51.640;9.566;2024-03-07T10:22:36;5.07;;;3.28;;
38609;SDS011;24367;51.640;9.566;2024-03-07T10:25:03;4.93;;;3.85;;
38609;SDS011;24367;51.640;9.566;2024-03-07T10:27:30;4.22;;;3.83;;
38609;SDS011;24367;51.640;9.566;2024-03-07T10:29:56;4.63;;;3.33;;
38609;SDS011;24367;51.640;9.566;2024-03-07T10:32:23;4.05;;;3.47;;
38609;SDS011;24367;51.640;9.566;2024-03-07T10:34:50;4.65;;;3.75;;
38609;SDS011;24367;51.640;9.566;2024-03-07T10:37:17;5.25;;;3.58;;
38609;SDS011;24367;51.640;9.566;2024-03-07T10:39:47;5.53;;;3.70;;
38609;SDS011;24367;51.640;9.566;2024-03-07T10:42:15;5.82;;;3.88;;
38609;SDS011;24367;51.640;9.566;2024-03-07T10:44:43;5.55;;;3.60;;
38609;SDS011;24367;51.640;9.566;2024-03-07T10:47:11;4.68;;;3.58;;
38609;SDS011;24367;51.640;9.566;2024-03-07T10:49:43;4.82;;;3.50;;
38609;SDS011;24367;51.640;9.566;2024-03-07T10:52:21;4.97;;;4.15;;
38609;SDS011;24367;51.640;9.566;2024-03-07T10:54:55;5.10;;;3.97;;
38609;SDS011;24367;51.640;9.566;2024-03-07T10:57:31;4.35;;;3.50;;
38609;SDS011;24367;51.640;9.566;2024-03-07T11:00:04;4.22;;;3.47;;
38609;SDS011;24367;51.640;9.566;2024-03-07T11:02:55;4.28;;;3.55;;
38609;SDS011;24367;51.640;9.566;2024-03-07T11:05:21;4.70;;;3.53;;
38609;SDS011;24367;51.640;9.566;2024-03-07T11:07:54;6.50;;;3.88;;
38609;SDS011;24367;51.640;9.566;2024-03-07T11:10:24;5.70;;;4.00;;
38609;SDS011;24367;51.640;9.566;2024-03-07T11:12:50;5.25;;;3.80;;
38609;SDS011;24367;51.640;9.566;2024-03-07T11:15:17;4.68;;;3.45;;
38609;SDS011;24367;51.640;9.566;2024-03-07T11:17:45;4.60;;;3.80;;
38609;SDS011;24367;51.640;9.566;2024-03-07T11:20:19;6.00;;;3.92;;
38609;SDS011;24367;51.640;9.566;2024-03-07T11:22:47;5.70;;;4.07;;
38609;SDS011;24367;51.640;9.566;2024-03-07T11:25:16;5.28;;;3.30;;
38609;SDS011;24367;51.640;9.566;2024-03-07T11:27:51;5.40;;;3.65;;
38609;SDS011;24367;51.640;9.566;2024-03-07T11:30:18;9.60;;;4.20;;
38609;SDS011;24367;51.640;9.566;2024-03-07T11:32:46;4.22;;;3.50;;
38609;SDS011;24367;51.640;9.566;2024-03-07T11:35:15;6.00;;;3.97;;
38609;SDS011;24367;51.640;9.566;2024-03-07T11:37:47;7.05;;;3.95;;
38609;SDS011;24367;51.640;9.566;2024-03-07T11:40:23;5.03;;;3.88;;
38609;SDS011;24367;51.640;9.566;2024-03-07T11:43:11;5.07;;;4.03;;
38609;SDS011;24367;51.640;9.566;2024-03-07T11:45:37;4.63;;;3.60;;
38609;SDS011;24367;51.640;9.566;2024-03-07T11:48:10;5.97;;;3.83;;
38609;SDS011;24367;51.640;9.566;2024-03-07T11:50:36;4.53;;;3.67;;
38609;SDS011;24367;51.640;9.566;2024-03-07T11:53:04;4.63;;;3.78;;
38609;SDS011;24367;51.640;9.566;2024-03-07T11:55:31;5.75;;;4.38;;
38609;SDS011;24367;51.640;9.566;2024-03-07T11:58:06;5.57;;;4.47;;
38609;SDS011;24367;51.640;9.566;2024-03-07T12:00:34;7.00;;;4.63;;
38609;SDS011;24367;51.640;9.566;2024-03-07T12:03:01;6.20;;;4.70;;
38609;SDS011;24367;51.640;9.566;2024-03-07T12:05:31;7.50;;;4.68;;
38609;SDS011;24367;51.640;9.566;2024-03-07T12:07:58;6.55;;;4.60;;
38609;SDS011;24367;51.640;9.566;2024-03-07T12:10:25;7.25;;;4.65;;
38609;SDS011;24367;51.640;9.566;2024-03-07T12:12:53;7.30;;;5.03;;
38609;SDS011;24367;51.640;9.566;2024-03-07T12:15:21;8.32;;;5.00;;
38609;SDS011;24367;51.640;9.566;2024-03-07T12:17:49;6.55;;;4.70;;
38609;SDS011;24367;51.640;9.566;2024-03-07T12:20:16;7.75;;;5.05;;
38609;SDS011;24367;51.640;9.566;2024-03-07T12:22:55;7.75;;;4.93;;
38609;SDS011;24367;51.640;9.566;2024-03-07T12:25:22;6.32;;;4.97;;
38609;SDS011;24367;51.640;9.566;2024-03-07T12:27:58;6.95;;;4.75;;
38609;SDS011;24367;51.640;9.566;2024-03-07T12:30:27;6.88;;;5.07;;
38609;SDS011;24367;51.640;9.566;2024-03-07T12:32:59;6.78;;;5.32;;
38609;SDS011;24367;51.640;9.566;2024-03-07T12:35:25;6.25;;;4.47;;
38609;SDS011;24367;51.640;9.566;2024-03-07T12:37:52;6.05;;;4.38;;
38609;SDS011;24367;51.640;9.566;2024-03-07T12:40:19;6.95;;;4.90;;
38609;SDS011;24367;51.640;9.566;2024-03-07T12:42:50;6.75;;;4.82;;
38609;SDS011;24367;51.640;9.566;2024-03-07T12:45:18;6.85;;;5.63;;
38609;SDS011;24367;51.640;9.566;2024-03-07T12:47:45;7.95;;;5.57;;
38609;SDS011;24367;51.640;9.566;2024-03-07T12:50:17;5.70;;;5.10;;
38609;SDS011;24367;51.640;9.566;2024-03-07T12:52:45;9.13;;;4.75;;
38609;SDS011;24367;51.640;9.566;2024-03-07T12:55:15;6.00;;;5.00;;
38609;SDS011;24367;51.640;9.566;2024-03-07T12:57:43;7.22;;;4.70;;
38609;SDS011;24367;51.640;9.566;2024-03-07T13:00:10;8.43;;;5.60;;
38609;SDS011;24367;51.640;9.566;2024-03-07T13:02:44;6.28;;;4.85;;
38609;SDS011;24367;51.640;9.566;2024-03-07T13:05:11;6.38;;;5.00;;
38609;SDS011;24367;51.640;9.566;2024-03-07T13:07:45;6.63;;;5.20;;
38609;SDS011;24367;51.640;9.566;2024-03-07T13:10:12;6.05;;;4.45;;
38609;SDS011;24367;51.640;9.566;2024-03-07T13:12:40;6.43;;;4.63;;
38609;SDS011;24367;51.640;9.566;2024-03-07T13:15:08;7.07;;;5.50;;
38609;SDS011;24367;51.640;9.566;2024-03-07T13:17:35;6.20;;;4.95;;
38609;SDS011;24367;51.640;9.566;2024-03-07T13:20:02;7.88;;;4.90;;
38609;SDS011;24367;51.640;9.566;2024-03-07T13:25:04;5.88;;;4.72;;
38609;SDS011;24367;51.640;9.566;2024-03-07T13:27:39;6.70;;;5.13;;
38609;SDS011;24367;51.640;9.566;2024-03-07T13:30:09;6.32;;;5.40;;
38609;SDS011;24367;51.640;9.566;2024-03-07T13:32:49;7.78;;;5.43;;
38609;SDS011;24367;51.640;9.566;2024-03-07T13:35:16;6.75;;;5.63;;
38609;SDS011;24367;51.640;9.566;2024-03-07T13:37:44;6.90;;;5.38;;
38609;SDS011;24367;51.640;9.566;2024-03-07T13:40:13;9.35;;;5.50;;
38609;SDS011;24367;51.640;9.566;2024-03-07T13:42:48;6.63;;;5.30;;
38609;SDS011;24367;51.640;9.566;2024-03-07T13:45:17;6.90;;;5.50;;
38609;SDS011;24367;51.640;9.566;2024-03-07T13:47:43;6.63;;;5.10;;
38609;SDS011;24367;51.640;9.566;2024-03-07T13:50:09;7.20;;;4.97;;
38609;SDS011;24367;51.640;9.566;2024-03-07T13:52:37;7.03;;;5.28;;
38609;SDS011;24367;51.640;9.566;2024-03-07T13:55:08;8.48;;;5.68;;
38609;SDS011;24367;51.640;9.566;2024-03-07T13:57:40;7.75;;;5.60;;
38609;SDS011;24367;51.640;9.566;2024-03-07T14:00:24;6.88;;;5.15;;
38609;SDS011;24367;51.640;9.566;2024-03-07T14:02:59;7.03;;;4.90;;
38609;SDS011;24367;51.640;9.566;2024-03-07T14:05:46;7.35;;;4.90;;
38609;SDS011;24367;51.640;9.566;2024-03-07T14:14:29;6.88;;;5.18;;
38609;SDS011;24367;51.640;9.566;2024-03-07T14:23:26;6.35;;;5.03;;
38609;SDS011;24367;51.640;9.566;2024-03-07T14:26:09;6.60;;;5.38;;
38609;SDS011;24367;51.640;9.566;2024-03-07T14:28:59;6.70;;;5.00;;
38609;SDS011;24367;51.640;9.566;2024-03-07T14:31:35;5.95;;;5.00;;
38609;SDS011;24367;51.640;9.566;2024-03-07T14:34:06;6.03;;;4.97;;
38609;SDS011;24367;51.640;9.566;2024-03-07T14:36:38;6.20;;;4.82;;
38609;SDS011;24367;51.640;9.566;2024-03-07T14:39:10;6.17;;;4.77;;
38609;SDS011;24367;51.640;9.566;2024-03-07T14:41:47;7.03;;;5.15;;
38609;SDS011;24367;51.640;9.566;2024-03-07T14:44:16;6.72;;;5.05;;
38609;SDS011;24367;51.640;9.566;2024-03-07T14:46:46;8.13;;;5.43;;
38609;SDS011;24367;51.640;9.566;2024-03-07T14:49:15;6.25;;;4.70;;
38609;SDS011;24367;51.640;9.566;2024-03-07T14:51:42;7.47;;;4.68;;
38609;SDS011;24367;51.640;9.566;2024-03-07T14:54:09;6.75;;;5.07;;
38609;SDS011;24367;51.640;9.566;2024-03-07T14:56:36;6.28;;;4.97;;
38609;SDS011;24367;51.640;9.566;2024-03-07T14:59:02;6.40;;;4.38;;
38609;SDS011;24367;51.640;9.566;2024-03-07T15:01:31;6.93;;;5.30;;
38609;SDS011;24367;51.640;9.566;2024-03-07T15:04:00;6.20;;;5.03;;
38609;SDS011;24367;51.640;9.566;2024-03-07T15:06:32;5.88;;;4.68;;
38609;SDS011;24367;51.640;9.566;2024-03-07T15:08:59;5.53;;;4.75;;